sensor_id;sensor_type;location;lat;lon;timestamp;pressure;altitude;pressure_sealevel;temperature;humidity
11041;BME280;5573;49.592;8.662;2023-03-20T00:01:55;100060.47;;;7.80;100.00
11041;BME280;5573;49.592;8.662;2023-03-20T00:04:23;100089.91;;;8.03;100.00
11041;BME280;5573;49.592;8.662;2023-03-20T00:06:51;100094.81;;;7.93;100.00
11041;BME280;5573;49.592;8.662;2023-03-20T00:09:20;100098.00;;;8.15;100.00
11041;BME280;5573;49.592;8.662;2023-03-20T00:11:50;100095.34;;;8.54;100.00
11041;BME280;5573;49.592;8.662;2023-03-20T00:14:19;100095.25;;;8.70;100.00
11041;BME280;5573;49.592;8.662;2023-03-20T00:16:49;100102.97;;;8.64;100.00
11041;BME280;5573;49.592;8.662;2023-03-20T00:19:19;100101.63;;;8.74;100.00
11041;BME280;5573;49.592;8.662;2023-03-20T00:21:49;100111.63;;;9.05;100.00
11041;BME280;5573;49.592;8.662;2023-03-20T00:24:17;100089.31;;;9.07;100.00
11041;BME280;5573;49.592;8.662;2023-03-20T00:26:48;100109.75;;;9.32;100.00
11041;BME280;5573;49.592;8.662;2023-03-20T00:29:20;100109.16;;;9.43;100.00
11041;BME280;5573;49.592;8.662;2023-03-20T00:31:49;100113.53;;;9.47;100.00
11041;BME280;5573;49.592;8.662;2023-03-20T00:34:19;100114.94;;;9.38;100.00
11041;BME280;5573;49.592;8.662;2023-03-20T00:36:50;100109.31;;;9.53;100.00
11041;BME280;5573;49.592;8.662;2023-03-20T00:39:18;100112.97;;;9.61;100.00
11041;BME280;5573;49.592;8.662;2023-03-20T00:41:50;100111.38;;;9.60;100.00
11041;BME280;5573;49.592;8.662;2023-03-20T00:44:21;100093.03;;;9.41;100.00
11041;BME280;5573;49.592;8.662;2023-03-20T00:46:53;100115.97;;;9.52;100.00
11041;BME280;5573;49.592;8.662;2023-03-20T00:49:23;100111.66;;;9.51;100.00
11041;BME280;5573;49.592;8.662;2023-03-20T00:51:52;100107.09;;;9.63;100.00
11041;BME280;5573;49.592;8.662;2023-03-20T00:54:20;100112.41;;;9.75;100.00
11041;BME280;5573;49.592;8.662;2023-03-20T00:56:53;100107.97;;;9.67;100.00
11041;BME280;5573;49.592;8.662;2023-03-20T00:59:25;100107.81;;;9.83;100.00
11041;BME280;5573;49.592;8.662;2023-03-20T01:01:54;100109.34;;;9.80;100.00
11041;BME280;5573;49.592;8.662;2023-03-20T01:04:27;100112.66;;;9.66;100.00
11041;BME280;5573;49.592;8.662;2023-03-20T01:06:57;100112.59;;;9.63;100.00
11041;BME280;5573;49.592;8.662;2023-03-20T01:09:26;100117.91;;;9.75;100.00
11041;BME280;5573;49.592;8.662;2023-03-20T01:11:55;100118.31;;;9.77;100.00
11041;BME280;5573;49.592;8.662;2023-03-20T01:14:23;100117.97;;;9.79;100.00
11041;BME280;5573;49.592;8.662;2023-03-20T01:16:52;100120.03;;;9.85;100.00
11041;BME280;5573;49.592;8.662;2023-03-20T01:19:20;100121.41;;;9.72;100.00
11041;BME280;5573;49.592;8.662;2023-03-20T01:21:48;100110.50;;;9.79;100.00
11041;BME280;5573;49.592;8.662;2023-03-20T01:24:16;100115.75;;;9.88;100.00
11041;BME280;5573;49.592;8.662;2023-03-20T01:26:44;100120.31;;;9.80;100.00
11041;BME280;5573;49.592;8.662;2023-03-20T01:29:17;100112.84;;;9.77;100.00
11041;BME280;5573;49.592;8.662;2023-03-20T01:31:47;100113.47;;;9.93;100.00
11041;BME280;5573;49.592;8.662;2023-03-20T01:34:17;100119.41;;;9.95;100.00
11041;BME280;5573;49.592;8.662;2023-03-20T01:36:48;100125.94;;;9.87;100.00
11041;BME280;5573;49.592;8.662;2023-03-20T01:39:16;100122.09;;;9.92;100.00
11041;BME280;5573;49.592;8.662;2023-03-20T01:41:48;100128.38;;;9.92;100.00
11041;BME280;5573;49.592;8.662;2023-03-20T01:44:20;100134.19;;;9.87;100.00
11041;BME280;5573;49.592;8.662;2023-03-20T01:46:53;100132.31;;;9.95;100.00
11041;BME280;5573;49.592;8.662;2023-03-20T01:52:26;100137.94;;;10.02;100.00
11041;BME280;5573;49.592;8.662;2023-03-20T01:54:54;100123.19;;;10.14;100.00
11041;BME280;5573;49.592;8.662;2023-03-20T01:57:24;100136.41;;;10.05;100.00
11041;BME280;5573;49.592;8.662;2023-03-20T01:59:57;100127.06;;;10.09;100.00
11041;BME280;5573;49.592;8.662;2023-03-20T02:02:30;100131.53;;;9.94;100.00
11041;BME280;5573;49.592;8.662;2023-03-20T02:05:00;100133.16;;;9.95;100.00
11041;BME280;5573;49.592;8.662;2023-03-20T02:07:31;100127.25;;;9.97;100.00
11041;BME280;5573;49.592;8.662;2023-03-20T02:10:08;100129.59;;;9.95;100.00
11041;BME280;5573;49.592;8.662;2023-03-20T02:12:45;100119.63;;;10.10;100.00
11041;BME280;5573;49.592;8.662;2023-03-20T02:15:26;100135.84;;;9.92;100.00
11041;BME280;5573;49.592;8.662;2023-03-20T02:18:08;100126.53;;;10.00;100.00
11041;BME280;5573;49.592;8.662;2023-03-20T02:20:45;100125.53;;;10.12;100.00
11041;BME280;5573;49.592;8.662;2023-03-20T02:23:37;100138.00;;;10.06;100.00
11041;BME280;5573;49.592;8.662;2023-03-20T02:26:21;100138.25;;;9.97;100.00
11041;BME280;5573;49.592;8.662;2023-03-20T02:29:11;100138.31;;;10.01;100.00
11041;BME280;5573;49.592;8.662;2023-03-20T02:32:32;100140.19;;;9.93;100.00
11041;BME280;5573;49.592;8.662;2023-03-20T02:38:28;100130.28;;;10.15;100.00
11041;BME280;5573;49.592;8.662;2023-03-20T02:41:07;100133.19;;;9.99;100.00
11041;BME280;5573;49.592;8.662;2023-03-20T02:43:42;100133.25;;;10.03;100.00
11041;BME280;5573;49.592;8.662;2023-03-20T02:46:20;100131.13;;;10.19;100.00
11041;BME280;5573;49.592;8.662;2023-03-20T02:48:56;100131.97;;;9.96;100.00
11041;BME280;5573;49.592;8.662;2023-03-20T02:51:32;100128.84;;;9.98;100.00
11041;BME280;5573;49.592;8.662;2023-03-20T02:54:07;100138.00;;;10.06;100.00
11041;BME280;5573;49.592;8.662;2023-03-20T02:56:46;100135.19;;;10.02;100.00
11041;BME280;5573;49.592;8.662;2023-03-20T02:59:25;100133.16;;;9.95;100.00
11041;BME280;5573;49.592;8.662;2023-03-20T03:01:59;100139.66;;;10.10;100.00
11041;BME280;5573;49.592;8.662;2023-03-20T03:04:34;100138.88;;;10.10;100.00
11041;BME280;5573;49.592;8.662;2023-03-20T03:07:04;100139.78;;;9.94;100.00
11041;BME280;5573;49.592;8.662;2023-03-20T03:09:38;100142.53;;;9.94;100.00
11041;BME280;5573;49.592;8.662;2023-03-20T03:12:11;100139.91;;;10.02;100.00
11041;BME280;5573;49.592;8.662;2023-03-20T03:14:44;100155.56;;;9.97;100.00
11041;BME280;5573;49.592;8.662;2023-03-20T03:17:16;100138.75;;;10.03;100.00
11041;BME280;5573;49.592;8.662;2023-03-20T03:19:48;100157.25;;;10.06;100.00
11041;BME280;5573;49.592;8.662;2023-03-20T03:22:17;100151.84;;;10.13;100.00
11041;BME280;5573;49.592;8.662;2023-03-20T03:24:50;100148.47;;;9.96;100.00
11041;BME280;5573;49.592;8.662;2023-03-20T03:27:22;100148.63;;;10.07;100.00
11041;BME280;5573;49.592;8.662;2023-03-20T03:29:53;100146.06;;;9.95;100.00
11041;BME280;5573;49.592;8.662;2023-03-20T03:32:26;100142.25;;;10.00;100.00
11041;BME280;5573;49.592;8.662;2023-03-20T03:34:56;100149.78;;;10.06;100.00
11041;BME280;5573;49.592;8.662;2023-03-20T03:37:38;100143.75;;;9.97;100.00
11041;BME280;5573;49.592;8.662;2023-03-20T03:40:16;100139.00;;;9.94;100.00
11041;BME280;5573;49.592;8.662;2023-03-20T03:42:52;100145.34;;;9.98;100.00
11041;BME280;5573;49.592;8.662;2023-03-20T03:45:25;100138.56;;;9.92;100.00
11041;BME280;5573;49.592;8.662;2023-03-20T03:48:02;100142.66;;;10.02;100.00
11041;BME280;5573;49.592;8.662;2023-03-20T03:50:35;100144.06;;;9.92;100.00
11041;BME280;5573;49.592;8.662;2023-03-20T03:53:08;100142.94;;;9.93;100.00
11041;BME280;5573;49.592;8.662;2023-03-20T03:55:42;100142.50;;;9.91;100.00
11041;BME280;5573;49.592;8.662;2023-03-20T03:58:16;100143.59;;;9.86;100.00
11041;BME280;5573;49.592;8.662;2023-03-20T04:00:47;100148.81;;;9.95;100.00
11041;BME280;5573;49.592;8.662;2023-03-20T04:03:19;100158.47;;;10.08;100.00
11041;BME280;5573;49.592;8.662;2023-03-20T04:05:50;100154.00;;;10.00;100.00
11041;BME280;5573;49.592;8.662;2023-03-20T04:08:20;100154.00;;;10.00;100.00
11041;BME280;5573;49.592;8.662;2023-03-20T04:10:49;100154.44;;;10.02;100.00
11041;BME280;5573;49.592;8.662;2023-03-20T04:13:17;100162.06;;;10.12;100.00
11041;BME280;5573;49.592;8.662;2023-03-20T04:15:45;100164.06;;;10.15;100.00
11041;BME280;5573;49.592;8.662;2023-03-20T04:18:14;100169.03;;;10.06;100.00
11041;BME280;5573;49.592;8.662;2023-03-20T04:20:44;100166.44;;;10.17;100.00
11041;BME280;5573;49.592;8.662;2023-03-20T04:23:12;100164.38;;;10.10;100.00
11041;BME280;5573;49.592;8.662;2023-03-20T04:25:40;100166.03;;;10.15;100.00
11041;BME280;5573;49.592;8.662;2023-03-20T04:28:10;100170.31;;;10.12;100.00
11041;BME280;5573;49.592;8.662;2023-03-20T04:30:59;100169.91;;;10.14;100.00
11041;BME280;5573;49.592;8.662;2023-03-20T04:33:56;100177.44;;;10.17;100.00
11041;BME280;5573;49.592;8.662;2023-03-20T04:36:53;100163.97;;;10.08;100.00
11041;BME280;5573;49.592;8.662;2023-03-20T04:39:26;100171.84;;;10.10;100.00
11041;BME280;5573;49.592;8.662;2023-03-20T04:41:54;100161.28;;;10.12;100.00
11041;BME280;5573;49.592;8.662;2023-03-20T04:44:24;100165.91;;;10.08;100.00
11041;BME280;5573;49.592;8.662;2023-03-20T04:46:51;100165.22;;;10.14;100.00
11041;BME280;5573;49.592;8.662;2023-03-20T04:49:19;100167.13;;;10.10;100.00
11041;BME280;5573;49.592;8.662;2023-03-20T04:51:47;100160.63;;;10.22;100.00
11041;BME280;5573;49.592;8.662;2023-03-20T04:54:20;100160.94;;;10.17;100.00
11041;BME280;5573;49.592;8.662;2023-03-20T04:56:48;100166.81;;;10.15;100.00
11041;BME280;5573;49.592;8.662;2023-03-20T04:59:19;100166.91;;;9.96;100.00
11041;BME280;5573;49.592;8.662;2023-03-20T05:01:48;100168.25;;;10.06;100.00
11041;BME280;5573;49.592;8.662;2023-03-20T05:04:16;100184.00;;;10.09;100.00
11041;BME280;5573;49.592;8.662;2023-03-20T05:06:44;100185.53;;;10.06;100.00
11041;BME280;5573;49.592;8.662;2023-03-20T05:09:16;100183.56;;;10.07;100.00
11041;BME280;5573;49.592;8.662;2023-03-20T05:11:45;100175.94;;;9.96;100.00
11041;BME280;5573;49.592;8.662;2023-03-20T05:14:33;100188.69;;;10.08;100.00
11041;BME280;5573;49.592;8.662;2023-03-20T05:17:31;100189.06;;;10.07;100.00
11041;BME280;5573;49.592;8.662;2023-03-20T05:20:19;100185.47;;;10.03;100.00
11041;BME280;5573;49.592;8.662;2023-03-20T05:23:13;100189.16;;;9.87;100.00
11041;BME280;5573;49.592;8.662;2023-03-20T05:25:53;100195.53;;;9.95;100.00
11041;BME280;5573;49.592;8.662;2023-03-20T05:28:30;100190.16;;;10.02;100.00
11041;BME280;5573;49.592;8.662;2023-03-20T05:31:27;100199.00;;;10.15;100.00
11041;BME280;5573;49.592;8.662;2023-03-20T05:34:14;100200.53;;;10.12;100.00
11041;BME280;5573;49.592;8.662;2023-03-20T05:37:02;100194.88;;;10.02;100.00
11041;BME280;5573;49.592;8.662;2023-03-20T05:39:56;100190.03;;;9.95;100.00
11041;BME280;5573;49.592;8.662;2023-03-20T05:42:38;100192.97;;;10.06;100.00
11041;BME280;5573;49.592;8.662;2023-03-20T05:45:33;100165.09;;;9.81;100.00
11041;BME280;5573;49.592;8.662;2023-03-20T05:48:27;100185.94;;;10.08;100.00
11041;BME280;5573;49.592;8.662;2023-03-20T05:51:12;100183.25;;;10.12;100.00
11041;BME280;5573;49.592;8.662;2023-03-20T05:54:00;100179.81;;;10.18;100.00
11041;BME280;5573;49.592;8.662;2023-03-20T05:56:42;100172.38;;;10.19;100.00
11041;BME280;5573;49.592;8.662;2023-03-20T05:59:46;100151.63;;;10.25;100.00
11041;BME280;5573;49.592;8.662;2023-03-20T06:02:36;100155.13;;;10.22;100.00
11041;BME280;5573;49.592;8.662;2023-03-20T06:05:24;100175.34;;;10.33;100.00
11041;BME280;5573;49.592;8.662;2023-03-20T06:07:53;100175.88;;;10.43;100.00
11041;BME280;5573;49.592;8.662;2023-03-20T06:10:21;100189.97;;;10.41;100.00
11041;BME280;5573;49.592;8.662;2023-03-20T06:12:50;100188.59;;;10.28;100.00
11041;BME280;5573;49.592;8.662;2023-03-20T06:15:22;100196.16;;;10.31;100.00
11041;BME280;5573;49.592;8.662;2023-03-20T06:17:57;100202.69;;;10.49;100.00
11041;BME280;5573;49.592;8.662;2023-03-20T06:20:26;100209.63;;;10.40;100.00
11041;BME280;5573;49.592;8.662;2023-03-20T06:22:55;100210.94;;;10.26;100.00
11041;BME280;5573;49.592;8.662;2023-03-20T06:25:24;100219.41;;;10.14;100.00
11041;BME280;5573;49.592;8.662;2023-03-20T06:27:51;100219.63;;;10.28;100.00
11041;BME280;5573;49.592;8.662;2023-03-20T06:30:19;100212.44;;;10.20;100.00
11041;BME280;5573;49.592;8.662;2023-03-20T06:32:49;100221.84;;;10.19;100.00
11041;BME280;5573;49.592;8.662;2023-03-20T06:35:18;100214.03;;;10.21;100.00
11041;BME280;5573;49.592;8.662;2023-03-20T06:37:48;100216.88;;;10.02;100.00
11041;BME280;5573;49.592;8.662;2023-03-20T06:40:23;100215.50;;;10.15;100.00
11041;BME280;5573;49.592;8.662;2023-03-20T06:42:51;100227.53;;;10.07;100.00
11041;BME280;5573;49.592;8.662;2023-03-20T06:45:20;100221.94;;;10.00;100.00
11041;BME280;5573;49.592;8.662;2023-03-20T06:47:55;100228.91;;;9.93;100.00
11041;BME280;5573;49.592;8.662;2023-03-20T06:50:23;100232.75;;;10.12;100.00
11041;BME280;5573;49.592;8.662;2023-03-20T06:52:51;100235.50;;;10.12;100.00
11041;BME280;5573;49.592;8.662;2023-03-20T06:55:37;100233.97;;;9.91;100.00
11041;BME280;5573;49.592;8.662;2023-03-20T06:58:05;100232.25;;;10.06;100.00
11041;BME280;5573;49.592;8.662;2023-03-20T07:00:34;100233.75;;;10.27;100.00
11041;BME280;5573;49.592;8.662;2023-03-20T07:03:05;100239.31;;;10.30;100.00
11041;BME280;5573;49.592;8.662;2023-03-20T07:05:33;100237.66;;;10.26;100.00
11041;BME280;5573;49.592;8.662;2023-03-20T07:08:05;100245.13;;;10.02;100.00
11041;BME280;5573;49.592;8.662;2023-03-20T07:10:35;100244.97;;;9.91;100.00
11041;BME280;5573;49.592;8.662;2023-03-20T07:13:04;100244.97;;;9.91;100.00
11041;BME280;5573;49.592;8.662;2023-03-20T07:15:34;100247.75;;;9.72;100.00
11041;BME280;5573;49.592;8.662;2023-03-20T07:18:03;100243.09;;;9.99;100.00
11041;BME280;5573;49.592;8.662;2023-03-20T07:20:31;100233.03;;;10.07;100.00
11041;BME280;5573;49.592;8.662;2023-03-20T07:22:59;100242.75;;;10.01;100.00
11041;BME280;5573;49.592;8.662;2023-03-20T07:25:30;100241.19;;;10.00;100.00
11041;BME280;5573;49.592;8.662;2023-03-20T07:28:10;100243.75;;;10.12;100.00
11041;BME280;5573;49.592;8.662;2023-03-20T07:30:41;100233.28;;;10.21;100.00
11041;BME280;5573;49.592;8.662;2023-03-20T07:33:14;100232.69;;;10.31;100.00
11041;BME280;5573;49.592;8.662;2023-03-20T07:35:43;100239.47;;;10.14;100.00
11041;BME280;5573;49.592;8.662;2023-03-20T07:38:11;100245.00;;;9.95;100.00
11041;BME280;5573;49.592;8.662;2023-03-20T07:40:52;100247.13;;;9.82;100.00
11041;BME280;5573;49.592;8.662;2023-03-20T07:43:22;100245.69;;;9.88;100.00
11041;BME280;5573;49.592;8.662;2023-03-20T07:46:01;100247.88;;;9.79;100.00
11041;BME280;5573;49.592;8.662;2023-03-20T07:48:28;100249.78;;;9.98;100.00
11041;BME280;5573;49.592;8.662;2023-03-20T07:50:57;100254.91;;;10.00;100.00
11041;BME280;5573;49.592;8.662;2023-03-20T07:53:25;100251.78;;;9.78;100.00
11041;BME280;5573;49.592;8.662;2023-03-20T07:55:53;100254.16;;;9.80;100.00
11041;BME280;5573;49.592;8.662;2023-03-20T07:58:22;100253.91;;;9.88;100.00
11041;BME280;5573;49.592;8.662;2023-03-20T08:00:50;100253.31;;;9.98;100.00
11041;BME280;5573;49.592;8.662;2023-03-20T08:03:17;100255.81;;;9.84;100.00
11041;BME280;5573;49.592;8.662;2023-03-20T08:05:46;100254.25;;;9.83;100.00
11041;BME280;5573;49.592;8.662;2023-03-20T08:08:14;100258.81;;;9.98;100.00
11041;BME280;5573;49.592;8.662;2023-03-20T08:10:42;100265.53;;;10.01;100.00
11041;BME280;5573;49.592;8.662;2023-03-20T08:13:09;100263.16;;;10.00;100.00
11041;BME280;5573;49.592;8.662;2023-03-20T08:15:39;100258.19;;;9.86;100.00
11041;BME280;5573;49.592;8.662;2023-03-20T08:18:07;100260.59;;;9.87;100.00
11041;BME280;5573;49.592;8.662;2023-03-20T08:20:34;100263.50;;;9.75;100.00
11041;BME280;5573;49.592;8.662;2023-03-20T08:23:02;100261.72;;;9.86;100.00
11041;BME280;5573;49.592;8.662;2023-03-20T08:25:30;100268.09;;;9.90;100.00
11041;BME280;5573;49.592;8.662;2023-03-20T08:27:59;100272.44;;;9.91;100.00
11041;BME280;5573;49.592;8.662;2023-03-20T08:30:27;100271.41;;;10.00;100.00
11041;BME280;5573;49.592;8.662;2023-03-20T08:32:56;100276.22;;;9.83;100.00
11041;BME280;5573;49.592;8.662;2023-03-20T08:35:24;100273.97;;;9.89;100.00
11041;BME280;5573;49.592;8.662;2023-03-20T08:38:12;100251.00;;;9.77;100.00
11041;BME280;5573;49.592;8.662;2023-03-20T08:40:40;100270.56;;;9.95;100.00
11041;BME280;5573;49.592;8.662;2023-03-20T08:43:07;100271.66;;;9.91;100.00
11041;BME280;5573;49.592;8.662;2023-03-20T08:45:35;100277.31;;;9.79;100.00
11041;BME280;5573;49.592;8.662;2023-03-20T08:48:05;100279.25;;;9.78;100.00
11041;BME280;5573;49.592;8.662;2023-03-20T08:50:32;100279.81;;;9.87;100.00
11041;BME280;5573;49.592;8.662;2023-03-20T08:53:00;100283.91;;;9.74;100.00
11041;BME280;5573;49.592;8.662;2023-03-20T08:55:28;100290.34;;;9.62;100.00
11041;BME280;5573;49.592;8.662;2023-03-20T08:57:56;100286.03;;;9.84;100.00
11041;BME280;5573;49.592;8.662;2023-03-20T09:00:24;100289.63;;;9.88;100.00
11041;BME280;5573;49.592;8.662;2023-03-20T09:02:53;100300.34;;;9.93;100.00
11041;BME280;5573;49.592;8.662;2023-03-20T09:05:22;100300.47;;;10.01;100.00
11041;BME280;5573;49.592;8.662;2023-03-20T09:07:50;100303.03;;;9.90;100.00
11041;BME280;5573;49.592;8.662;2023-03-20T09:10:17;100300.94;;;9.83;100.00
11041;BME280;5573;49.592;8.662;2023-03-20T09:12:45;100307.00;;;9.92;100.00
11041;BME280;5573;49.592;8.662;2023-03-20T09:15:13;100304.00;;;10.01;100.00
11041;BME280;5573;49.592;8.662;2023-03-20T09:17:41;100306.47;;;10.06;100.00
11041;BME280;5573;49.592;8.662;2023-03-20T09:20:09;100304.00;;;10.01;100.00
11041;BME280;5573;49.592;8.662;2023-03-20T09:22:39;100306.31;;;9.99;100.00
11041;BME280;5573;49.592;8.662;2023-03-20T09:25:09;100317.81;;;10.05;100.00
11041;BME280;5573;49.592;8.662;2023-03-20T09:27:36;100315.31;;;10.19;100.00
11041;BME280;5573;49.592;8.662;2023-03-20T09:30:06;100314.78;;;10.33;100.00
11041;BME280;5573;49.592;8.662;2023-03-20T09:32:34;100303.56;;;10.42;100.00
11041;BME280;5573;49.592;8.662;2023-03-20T09:35:03;100327.38;;;10.57;100.00
11041;BME280;5573;49.592;8.662;2023-03-20T09:37:31;100324.00;;;10.67;100.00
11041;BME280;5573;49.592;8.662;2023-03-20T09:40:00;100329.50;;;10.67;100.00
11041;BME280;5573;49.592;8.662;2023-03-20T09:42:38;100328.53;;;10.83;100.00
11041;BME280;5573;49.592;8.662;2023-03-20T09:45:10;100322.41;;;10.93;100.00
11041;BME280;5573;49.592;8.662;2023-03-20T09:47:49;100327.41;;;10.84;100.00
11041;BME280;5573;49.592;8.662;2023-03-20T09:50:26;100322.88;;;10.98;100.00
11041;BME280;5573;49.592;8.662;2023-03-20T09:52:58;100326.72;;;10.94;100.00
11041;BME280;5573;49.592;8.662;2023-03-20T09:55:36;100324.09;;;10.74;100.00
11041;BME280;5573;49.592;8.662;2023-03-20T09:58:11;100323.63;;;10.95;100.00
11041;BME280;5573;49.592;8.662;2023-03-20T10:00:43;100321.00;;;11.06;100.00
11041;BME280;5573;49.592;8.662;2023-03-20T10:03:17;100322.88;;;11.29;100.00
11041;BME280;5573;49.592;8.662;2023-03-20T10:05:48;100323.25;;;11.57;100.00
11041;BME280;5573;49.592;8.662;2023-03-20T10:08:21;100326.44;;;11.93;100.00
11041;BME280;5573;49.592;8.662;2023-03-20T10:11:02;100326.06;;;11.98;100.00
11041;BME280;5573;49.592;8.662;2023-03-20T10:13:50;100319.22;;;11.85;100.00
11041;BME280;5573;49.592;8.662;2023-03-20T10:16:31;100316.78;;;11.76;100.00
11041;BME280;5573;49.592;8.662;2023-03-20T10:19:10;100316.00;;;11.79;100.00
11041;BME280;5573;49.592;8.662;2023-03-20T10:21:44;100312.88;;;11.81;100.00
11041;BME280;5573;49.592;8.662;2023-03-20T10:24:16;100310.69;;;11.64;100.00
11041;BME280;5573;49.592;8.662;2023-03-20T10:26:50;100298.69;;;11.83;100.00
11041;BME280;5573;49.592;8.662;2023-03-20T10:29:26;100314.34;;;11.71;100.00
11041;BME280;5573;49.592;8.662;2023-03-20T10:32:01;100317.94;;;11.42;100.00
11041;BME280;5573;49.592;8.662;2023-03-20T10:34:43;100309.44;;;11.54;100.00
11041;BME280;5573;49.592;8.662;2023-03-20T10:37:33;100325.81;;;11.77;100.00
11041;BME280;5573;49.592;8.662;2023-03-20T10:40:19;100319.19;;;12.19;100.00
11041;BME280;5573;49.592;8.662;2023-03-20T10:42:53;100309.19;;;12.52;100.00
11041;BME280;5573;49.592;8.662;2023-03-20T10:45:30;100319.47;;;13.17;100.00
11041;BME280;5573;49.592;8.662;2023-03-20T10:48:01;100325.44;;;13.23;100.00
11041;BME280;5573;49.592;8.662;2023-03-20T10:50:34;100319.59;;;13.35;100.00
11041;BME280;5573;49.592;8.662;2023-03-20T10:53:05;100324.38;;;13.42;100.00
11041;BME280;5573;49.592;8.662;2023-03-20T10:55:36;100316.47;;;13.44;100.00
11041;BME280;5573;49.592;8.662;2023-03-20T10:58:13;100311.31;;;13.35;100.00
11041;BME280;5573;49.592;8.662;2023-03-20T11:00:42;100261.06;;;13.15;100.00
11041;BME280;5573;49.592;8.662;2023-03-20T11:03:19;100304.94;;;13.28;100.00
11041;BME280;5573;49.592;8.662;2023-03-20T11:05:48;100313.56;;;13.19;100.00
11041;BME280;5573;49.592;8.662;2023-03-20T11:08:36;100311.94;;;13.07;100.00
11041;BME280;5573;49.592;8.662;2023-03-20T11:11:06;100314.94;;;12.80;100.00
11041;BME280;5573;49.592;8.662;2023-03-20T11:13:37;100305.53;;;12.89;100.00
11041;BME280;5573;49.592;8.662;2023-03-20T11:16:15;100316.66;;;13.03;100.00
11041;BME280;5573;49.592;8.662;2023-03-20T11:18:45;100310.31;;;12.99;100.00
11041;BME280;5573;49.592;8.662;2023-03-20T11:21:18;100315.91;;;13.13;100.00
11041;BME280;5573;49.592;8.662;2023-03-20T11:23:46;100310.84;;;13.26;100.00
11041;BME280;5573;49.592;8.662;2023-03-20T11:26:16;100308.41;;;13.10;100.00
11041;BME280;5573;49.592;8.662;2023-03-20T11:28:49;100309.22;;;13.14;100.00
11041;BME280;5573;49.592;8.662;2023-03-20T11:31:20;100310.94;;;13.37;100.00
11041;BME280;5573;49.592;8.662;2023-03-20T11:34:00;100312.88;;;13.33;100.00
11041;BME280;5573;49.592;8.662;2023-03-20T11:36:36;100307.84;;;13.60;100.00
11041;BME280;5573;49.592;8.662;2023-03-20T11:39:11;100298.44;;;13.90;100.00
11041;BME280;5573;49.592;8.662;2023-03-20T11:41:47;100300.06;;;14.16;100.00
11041;BME280;5573;49.592;8.662;2023-03-20T11:44:25;100299.66;;;14.28;100.00
11041;BME280;5573;49.592;8.662;2023-03-20T11:46:55;100303.22;;;14.32;100.00
11041;BME280;5573;49.592;8.662;2023-03-20T11:49:24;100303.63;;;14.70;100.00
11041;BME280;5573;49.592;8.662;2023-03-20T11:51:55;100302.84;;;14.77;96.37
11041;BME280;5573;49.592;8.662;2023-03-20T11:54:27;100295.69;;;14.79;96.25
11041;BME280;5573;49.592;8.662;2023-03-20T11:56:57;100288.22;;;14.62;94.68
11041;BME280;5573;49.592;8.662;2023-03-20T11:59:29;100286.94;;;15.06;87.85
11041;BME280;5573;49.592;8.662;2023-03-20T12:02:00;100290.56;;;14.81;87.72
11041;BME280;5573;49.592;8.662;2023-03-20T12:04:30;100277.88;;;14.95;86.69
11041;BME280;5573;49.592;8.662;2023-03-20T12:07:02;100284.97;;;14.92;88.25
11041;BME280;5573;49.592;8.662;2023-03-20T12:09:36;100274.75;;;14.35;87.43
11041;BME280;5573;49.592;8.662;2023-03-20T12:12:11;100277.53;;;14.17;92.52
11041;BME280;5573;49.592;8.662;2023-03-20T12:14:46;100272.38;;;14.12;93.73
11041;BME280;5573;49.592;8.662;2023-03-20T12:17:37;100269.16;;;13.74;95.81
11041;BME280;5573;49.592;8.662;2023-03-20T12:20:16;100259.69;;;13.61;97.28
11041;BME280;5573;49.592;8.662;2023-03-20T12:22:52;100258.38;;;13.30;96.75
11041;BME280;5573;49.592;8.662;2023-03-20T12:25:23;100254.91;;;13.44;95.58
11041;BME280;5573;49.592;8.662;2023-03-20T12:27:56;100248.97;;;13.41;94.24
11041;BME280;5573;49.592;8.662;2023-03-20T12:30:39;100255.69;;;13.44;94.58
11041;BME280;5573;49.592;8.662;2023-03-20T12:33:14;100253.19;;;13.14;91.06
11041;BME280;5573;49.592;8.662;2023-03-20T12:35:46;100239.50;;;13.46;92.65
11041;BME280;5573;49.592;8.662;2023-03-20T12:38:22;100240.69;;;13.45;87.25
11041;BME280;5573;49.592;8.662;2023-03-20T12:40:54;100241.09;;;13.61;92.07
11041;BME280;5573;49.592;8.662;2023-03-20T12:43:26;100233.28;;;13.85;88.69
11041;BME280;5573;49.592;8.662;2023-03-20T12:46:04;100235.22;;;13.88;90.37
11041;BME280;5573;49.592;8.662;2023-03-20T12:48:42;100247.50;;;14.16;81.96
11041;BME280;5573;49.592;8.662;2023-03-20T12:51:15;100241.19;;;14.05;84.40
11041;BME280;5573;49.592;8.662;2023-03-20T12:53:57;100238.78;;;14.28;79.68
11041;BME280;5573;49.592;8.662;2023-03-20T12:56:36;100239.19;;;14.55;78.24
11041;BME280;5573;49.592;8.662;2023-03-20T12:59:13;100228.44;;;14.79;77.12
11041;BME280;5573;49.592;8.662;2023-03-20T13:01:50;100228.06;;;14.73;75.28
11041;BME280;5573;49.592;8.662;2023-03-20T13:04:29;100225.72;;;14.72;75.96
11041;BME280;5573;49.592;8.662;2023-03-20T13:07:16;100220.97;;;14.72;75.39
11041;BME280;5573;49.592;8.662;2023-03-20T13:10:06;100220.97;;;14.51;77.35
11041;BME280;5573;49.592;8.662;2023-03-20T13:12:41;100215.78;;;14.81;75.45
11041;BME280;5573;49.592;8.662;2023-03-20T13:15:20;100215.00;;;14.77;72.69
11041;BME280;5573;49.592;8.662;2023-03-20T13:17:56;100214.59;;;14.79;74.65
11041;BME280;5573;49.592;8.662;2023-03-20T13:20:27;100208.72;;;14.70;78.14
11041;BME280;5573;49.592;8.662;2023-03-20T13:23:10;100209.13;;;14.61;76.10
11041;BME280;5573;49.592;8.662;2023-03-20T13:25:56;100207.56;;;14.31;76.93
11041;BME280;5573;49.592;8.662;2023-03-20T13:28:34;100191.72;;;14.35;75.60
11041;BME280;5573;49.592;8.662;2023-03-20T13:31:15;100201.19;;;14.52;73.33
11041;BME280;5573;49.592;8.662;2023-03-20T13:33:51;100196.44;;;14.67;72.72
11041;BME280;5573;49.592;8.662;2023-03-20T13:36:31;100192.84;;;14.77;74.78